Time;durP1;ratioP1;P1;durP2;ratioP2;P2;SDS_P1;SDS_P2;PMS_P1;PMS_P2;Temp;Humidity;BMP_temperature;BMP_pressure;BME280_temperature;BME280_humidity;BME280_pressure;Samples;Min_cycle;Max_cycle;Signal;HPM_P1;HPM_P2
2024/01/15 00:01:52;;;;;;;18.80;9.83;;;;;;;2.14;62.13;98616.06;5136804;27;20171;-87
2024/01/15 00:04:17;;;;;;;13.37;6.60;;;;;;;2.13;62.43;98614.34;5136633;27;20235;-87
2024/01/15 00:06:44;;;;;;;20.33;9.70;;;;;;;2.21;62.07;98613.25;5118643;27;20213;-87
2024/01/15 00:09:11;;;;;;;17.27;8.67;;;;;;;2.29;61.45;98615.63;5136880;27;20282;-88
2024/01/15 00:11:36;;;;;;;20.73;8.60;;;;;;;2.27;61.50;98612.25;5136457;27;20247;-88
2024/01/15 00:14:03;;;;;;;18.70;8.47;;;;;;;2.14;61.29;98613.47;5136410;27;20171;-88
2024/01/15 00:16:28;;;;;;;17.93;7.40;;;;;;;2.15;60.81;98612.59;5135907;27;20344;-88
2024/01/15 00:18:55;;;;;;;25.90;9.07;;;;;;;2.14;61.50;98616.06;5136547;27;20641;-88
2024/01/15 00:21:23;;;;;;;18.10;8.20;;;;;;;2.18;61.30;98610.75;5136994;27;20206;-87
2024/01/15 00:23:50;;;;;;;24.27;8.83;;;;;;;2.06;61.65;98612.84;5135946;27;20187;-87
2024/01/15 00:26:17;;;;;;;21.90;8.53;;;;;;;2.13;61.90;98601.44;5136620;27;20167;-88
2024/01/15 00:28:44;;;;;;;21.87;9.10;;;;;;;1.98;62.13;98612.19;5136379;27;20210;-87
2024/01/15 00:31:11;;;;;;;28.90;9.77;;;;;;;1.94;62.07;98611.41;5118419;27;20541;-87
2024/01/15 00:33:37;;;;;;;15.73;7.27;;;;;;;2.09;62.66;98600.69;5135714;27;20191;-87
2024/01/15 00:36:05;;;;;;;21.77;9.43;;;;;;;2.12;62.47;98602.34;5118311;27;20574;-87
2024/01/15 00:38:31;;;;;;;17.33;8.73;;;;;;;2.11;62.54;98605.81;5136079;27;20253;-87
2024/01/15 00:40:58;;;;;;;22.37;8.43;;;;;;;2.14;62.16;98600.56;5136141;27;20679;-87
2024/01/15 00:43:25;;;;;;;36.07;12.97;;;;;;;2.00;62.25;98600.06;5136295;27;20203;-87
2024/01/15 00:45:51;;;;;;;17.50;7.93;;;;;;;2.04;62.46;98612.03;5135973;27;20183;-87
2024/01/15 00:48:18;;;;;;;18.17;7.57;;;;;;;1.99;62.02;98612.16;5136347;27;20577;-87
2024/01/15 00:50:45;;;;;;;19.60;8.17;;;;;;;2.04;62.83;98602.53;5136104;27;20174;-87
2024/01/15 00:53:12;;;;;;;16.23;8.13;;;;;;;2.03;62.16;98603.44;5136074;27;20561;-87
2024/01/15 00:55:38;;;;;;;18.47;8.87;;;;;;;2.02;62.15;98606.06;5117456;27;20183;-87
2024/01/15 00:58:04;;;;;;;16.07;6.37;;;;;;;1.97;62.35;98606.16;5117523;27;20171;-87
2024/01/15 01:00:31;;;;;;;19.73;8.00;;;;;;;1.93;62.37;98606.28;5117419;27;20210;-87
2024/01/15 01:02:56;;;;;;;19.10;8.13;;;;;;;1.95;62.20;98604.50;5135877;27;20175;-87
2024/01/15 01:05:23;;;;;;;21.37;7.40;;;;;;;1.91;62.40;98595.16;5135886;27;20216;-87
2024/01/15 01:07:48;;;;;;;17.23;8.07;;;;;;;1.98;62.26;98601.84;5135615;27;20179;-87
2024/01/15 01:10:16;;;;;;;21.07;7.40;;;;;;;1.83;62.78;98598.78;5135488;27;20250;-87
2024/01/15 01:12:42;;;;;;;19.17;7.83;;;;;;;1.67;63.12;98594.91;5135762;27;20186;-87
2024/01/15 01:15:08;;;;;;;24.40;7.20;;;;;;;1.64;63.66;98595.00;5135280;27;20183;-87
2024/01/15 01:17:33;;;;;;;19.23;8.63;;;;;;;1.72;63.59;98590.47;5117240;27;20655;-87
2024/01/15 01:20:00;;;;;;;16.87;8.80;;;;;;;1.79;63.22;98592.00;5135233;27;20563;-87
2024/01/15 01:22:26;;;;;;;21.83;9.20;;;;;;;1.83;63.84;98592.78;5135427;27;20315;-87
2024/01/15 01:24:53;;;;;;;17.13;8.10;;;;;;;1.86;63.56;98596.13;5114650;28;20176;-87
2024/01/15 01:27:18;;;;;;;22.77;9.43;;;;;;;1.84;62.89;98602.22;5127808;27;20195;-87
2024/01/15 01:29:45;;;;;;;28.47;8.30;;;;;;;1.80;62.29;98596.28;5134656;27;20191;-87
2024/01/15 01:32:10;;;;;;;25.00;10.33;;;;;;;1.83;62.09;98588.44;5134862;27;20185;-87
2024/01/15 01:34:43;;;;;;;17.27;7.43;;;;;;;1.84;61.43;98577.22;5134965;27;20179;-87
2024/01/15 01:37:14;;;;;;;20.33;7.70;;;;;;;1.85;61.75;98575.50;5116865;27;20567;-87
2024/01/15 01:39:42;;;;;;;13.43;6.37;;;;;;;1.73;61.11;98568.91;5135090;27;20170;-87
2024/01/15 01:42:08;;;;;;;18.57;6.20;;;;;;;1.75;61.42;98572.31;5116745;27;20642;-87
2024/01/15 01:44:35;;;;;;;12.30;5.17;;;;;;;1.91;60.91;98572.75;5134885;27;20251;-87
2024/01/15 01:47:04;;;;;;;18.93;7.13;;;;;;;1.88;61.36;98577.16;5134506;27;20183;-87
2024/01/15 01:49:30;;;;;;;15.00;5.17;;;;;;;1.88;61.58;98579.72;5116822;27;20945;-87
2024/01/15 01:51:59;;;;;;;15.33;7.20;;;;;;;1.68;61.53;98588.84;5116394;27;20183;-87
2024/01/15 01:54:32;;;;;;;17.73;6.67;;;;;;;1.47;62.54;98586.81;5116543;27;20316;-87
2024/01/15 01:56:59;;;;;;;16.50;7.27;;;;;;;1.35;62.61;98592.28;5134779;27;20254;-87
2024/01/15 01:59:30;;;;;;;15.90;7.63;;;;;;;1.32;62.51;98582.03;5135083;27;20171;-87
2024/01/15 02:01:58;;;;;;;36.77;13.87;;;;;;;1.23;61.88;98577.09;5134473;27;20188;-87
2024/01/15 02:04:26;;;;;;;34.30;13.13;;;;;;;1.33;61.83;98588.91;5116394;27;20246;-87
2024/01/15 02:06:52;;;;;;;25.37;10.67;;;;;;;1.32;61.63;98579.44;5134355;27;20183;-88
2024/01/15 02:09:19;;;;;;;15.40;8.30;;;;;;;1.41;61.10;98578.38;5134201;27;20202;-87
2024/01/15 02:11:49;;;;;;;18.17;8.43;;;;;;;1.42;61.35;98574.88;5116238;27;20444;-87
2024/01/15 02:14:15;;;;;;;28.50;8.10;;;;;;;1.35;60.70;98576.78;5134318;27;20255;-87
2024/01/15 02:16:41;;;;;;;23.30;8.47;;;;;;;1.35;60.44;98569.03;5116063;27;20299;-88
2024/01/15 02:19:14;;;;;;;19.90;9.30;;;;;;;1.30;60.54;98558.00;5116318;27;20659;-87
2024/01/15 02:21:41;;;;;;;17.87;8.20;;;;;;;1.27;60.62;98565.81;5133942;27;20270;-87
2024/01/15 02:24:08;;;;;;;24.53;9.63;;;;;;;1.27;60.46;98568.38;5134390;27;20598;-87
2024/01/15 02:26:35;;;;;;;21.57;8.03;;;;;;;1.19;60.78;98562.56;5115910;27;20496;-87
2024/01/15 02:29:03;;;;;;;15.90;8.10;;;;;;;1.26;60.29;98560.69;5134054;27;20218;-87
2024/01/15 02:31:29;;;;;;;26.70;9.57;;;;;;;1.32;60.25;98553.63;5134640;27;20178;-87
2024/01/15 02:33:55;;;;;;;27.97;11.33;;;;;;;1.23;60.08;98565.03;5134273;27;20481;-88
2024/01/15 02:36:22;;;;;;;33.73;12.07;;;;;;;1.14;60.55;98561.81;5133904;27;20186;-87
2024/01/15 02:38:48;;;;;;;21.90;10.30;;;;;;;1.23;60.15;98562.44;5134591;28;20175;-87
2024/01/15 02:41:15;;;;;;;26.17;11.60;;;;;;;1.34;59.99;98558.78;5133714;27;20501;-87
2024/01/15 02:43:41;;;;;;;27.30;12.57;;;;;;;1.28;60.19;98561.50;5115537;28;20194;-87
2024/01/15 02:46:06;;;;;;;25.13;12.57;;;;;;;1.12;60.53;98554.13;5116181;28;20424;-88
2024/01/15 02:48:34;;;;;;;21.97;10.80;;;;;;;0.98;60.91;98550.16;5133917;28;20658;-88
2024/01/15 02:51:02;;;;;;;46.00;15.97;;;;;;;0.85;61.23;98561.66;5133963;28;20257;-87
2024/01/15 02:53:27;;;;;;;30.07;10.97;;;;;;;0.96;61.48;98555.38;5115950;28;20602;-87
2024/01/15 02:55:53;;;;;;;28.43;13.40;;;;;;;0.95;61.56;98553.69;5133749;27;20268;-87
2024/01/15 02:58:19;;;;;;;35.83;12.20;;;;;;;1.11;61.52;98567.91;5115788;28;20511;-87
2024/01/15 03:00:46;;;;;;;27.83;12.40;;;;;;;1.16;61.79;98549.72;5116793;28;20248;-87
2024/01/15 03:03:12;;;;;;;29.53;13.57;;;;;;;1.10;61.77;98555.06;5115740;28;20183;-88
2024/01/15 03:05:39;;;;;;;26.50;12.73;;;;;;;1.04;61.85;98547.47;5134125;28;20419;-87
2024/01/15 03:08:04;;;;;;;35.83;16.23;;;;;;;1.04;61.78;98548.31;5115597;28;20546;-87
2024/01/15 03:10:31;;;;;;;23.93;12.43;;;;;;;1.05;61.89;98552.56;5133762;28;20269;-88
2024/01/15 03:12:57;;;;;;;30.47;12.27;;;;;;;1.06;61.83;98543.09;5133715;28;20186;-88
2024/01/15 03:15:24;;;;;;;29.37;13.33;;;;;;;0.99;61.81;98547.56;5116443;28;20416;-87
2024/01/15 03:17:49;;;;;;;36.50;13.00;;;;;;;1.05;62.62;98551.72;5133515;28;20428;-87
2024/01/15 03:20:16;;;;;;;37.07;14.60;;;;;;;1.09;61.95;98553.34;5133655;28;20957;-87
2024/01/15 03:22:43;;;;;;;58.57;16.87;;;;;;;1.11;62.14;98551.56;5115299;28;20189;-87
2024/01/15 03:25:08;;;;;;;40.33;15.50;;;;;;;1.10;62.02;98555.06;5115795;28;20931;-87
2024/01/15 03:27:34;;;;;;;39.93;16.10;;;;;;;1.10;61.10;98549.91;5115331;28;20443;-87
2024/01/15 03:30:02;;;;;;;40.23;17.23;;;;;;;1.02;60.63;98551.81;5115695;28;20210;-87
2024/01/15 03:32:27;;;;;;;34.17;14.30;;;;;;;0.99;60.71;98544.13;5134035;27;20540;-88
2024/01/15 03:34:53;;;;;;;36.67;13.67;;;;;;;0.95;59.98;98543.34;5115291;28;20183;-87
2024/01/15 03:37:20;;;;;;;29.97;11.97;;;;;;;0.90;60.19;98546.91;5115368;28;20179;-88
2024/01/15 03:39:45;;;;;;;26.77;9.93;;;;;;;0.83;60.18;98548.81;5115282;28;20572;-87
2024/01/15 03:42:12;;;;;;;21.33;9.87;;;;;;;0.79;59.92;98548.91;5133739;28;20417;-87
2024/01/15 03:44:38;;;;;;;24.37;11.23;;;;;;;0.73;60.04;98556.78;5133272;28;20175;-87
2024/01/15 03:47:04;;;;;;;26.27;11.73;;;;;;;0.81;60.05;98542.84;5115192;28;20504;-88
2024/01/15 03:49:30;;;;;;;33.70;13.57;;;;;;;0.87;59.40;98541.84;5115731;28;20605;-87
2024/01/15 03:51:57;;;;;;;33.00;13.10;;;;;;;0.74;59.18;98551.59;5134269;27;20422;-87
2024/01/15 03:54:24;;;;;;;36.50;14.13;;;;;;;0.71;59.31;98549.06;5136979;27;20465;-87
2024/01/15 03:56:50;;;;;;;25.10;10.03;;;;;;;0.66;59.86;98543.19;5105696;28;20489;-87
2024/01/15 03:59:17;;;;;;;21.20;9.00;;;;;;;0.61;59.82;98548.44;5116389;28;20404;-88
2024/01/15 04:01:49;;;;;;;28.77;11.33;;;;;;;0.60;59.65;98551.88;5131779;27;20179;-87
2024/01/15 04:04:14;;;;;;;18.63;9.37;;;;;;;0.54;59.75;98553.78;5137358;27;20456;-87
2024/01/15 04:06:41;;;;;;;22.30;9.47;;;;;;;0.55;59.94;98551.16;5136389;27;20423;-87
2024/01/15 04:09:07;;;;;;;18.60;8.67;;;;;;;0.47;60.42;98547.06;5136348;27;20205;-88
2024/01/15 04:11:33;;;;;;;15.50;7.90;;;;;;;0.35;61.04;98548.16;5136952;27;20430;-88
2024/01/15 04:13:58;;;;;;;16.57;8.93;;;;;;;0.26;61.12;98556.06;5136924;27;20423;-87
2024/01/15 04:16:24;;;;;;;21.30;9.90;;;;;;;0.37;61.57;98553.28;5137167;27;20229;-87
2024/01/15 04:18:50;;;;;;;20.23;8.10;;;;;;;0.50;61.29;98555.56;5136403;27;20200;-87
2024/01/15 04:21:18;;;;;;;17.90;7.90;;;;;;;0.58;60.57;98551.09;5118337;27;20184;-87
2024/01/15 04:23:44;;;;;;;17.37;8.40;;;;;;;0.43;62.00;98542.84;5118144;27;20424;-87
2024/01/15 04:26:10;;;;;;;17.03;7.60;;;;;;;0.42;62.78;98541.97;5118236;27;20446;-87
2024/01/15 04:28:37;;;;;;;17.33;8.23;;;;;;;0.49;62.74;98540.13;5136092;27;20297;-87
2024/01/15 04:31:04;;;;;;;18.97;7.63;;;;;;;0.57;62.60;98539.09;5136595;27;20423;-87
2024/01/15 04:33:31;;;;;;;25.50;9.77;;;;;;;0.63;63.30;98538.94;5136255;27;20889;-87
2024/01/15 04:36:02;;;;;;;18.50;9.00;;;;;;;0.70;63.35;98538.81;5136188;27;20415;-87
2024/01/15 04:38:28;;;;;;;28.23;11.73;;;;;;;0.69;62.81;98531.94;5118870;27;20407;-87
2024/01/15 04:40:55;;;;;;;23.23;11.10;;;;;;;0.58;63.51;98538.19;5117899;27;20416;-88
2024/01/15 04:43:22;;;;;;;24.47;9.80;;;;;;;0.43;62.77;98540.25;5118196;27;20512;-87
2024/01/15 04:45:47;;;;;;;24.10;9.20;;;;;;;0.49;63.21;98542.72;5136291;27;20171;-88
2024/01/15 04:48:14;;;;;;;30.80;12.27;;;;;;;0.56;62.88;98544.25;5135921;27;20520;-87
2024/01/15 04:50:41;;;;;;;26.40;11.37;;;;;;;0.40;62.37;98540.31;5135917;27;20171;-88
2024/01/15 04:53:06;;;;;;;29.93;11.63;;;;;;;0.46;62.11;98537.63;5117381;27;20428;-87
2024/01/15 04:55:32;;;;;;;28.17;11.90;;;;;;;0.58;61.76;98535.63;5117909;27;20519;-88
2024/01/15 04:57:57;;;;;;;25.60;11.47;;;;;;;0.64;61.22;98539.78;5117611;27;20196;-88
2024/01/15 05:00:24;;;;;;;21.67;9.13;;;;;;;0.64;60.60;98542.38;5117461;27;20243;-87
2024/01/15 05:02:49;;;;;;;32.97;11.17;;;;;;;0.80;59.28;98538.56;5136128;27;20174;-88
2024/01/15 05:05:15;;;;;;;21.20;10.80;;;;;;;0.75;59.80;98526.66;5135485;27;20432;-88
2024/01/15 05:07:41;;;;;;;24.53;12.37;;;;;;;0.63;59.67;98537.25;5131933;27;20591;-87
2024/01/15 05:10:07;;;;;;;26.13;10.87;;;;;;;0.56;59.59;98537.38;5133897;27;20766;-88
2024/01/15 05:12:33;;;;;;;30.17;11.93;;;;;;;0.52;59.76;98540.91;5133378;27;20191;-88
2024/01/15 05:14:58;;;;;;;26.40;12.43;;;;;;;0.53;59.93;98542.59;5135449;27;20886;-88
2024/01/15 05:17:24;;;;;;;28.57;12.20;;;;;;;0.50;59.69;98550.41;5134592;27;20179;-87
2024/01/15 05:19:49;;;;;;;32.07;11.77;;;;;;;0.34;59.87;98541.31;5135239;27;20220;-87
2024/01/15 05:22:15;;;;;;;29.63;13.13;;;;;;;0.34;59.43;98536.16;5116995;27;20221;-87
2024/01/15 05:24:40;;;;;;;25.83;11.80;;;;;;;0.29;60.12;98537.97;5116838;27;20185;-87
2024/01/15 05:27:06;;;;;;;28.10;13.03;;;;;;;0.39;59.68;98534.31;5135359;27;20204;-87
2024/01/15 05:29:31;;;;;;;59.33;21.97;;;;;;;0.45;59.93;98541.94;5134983;27;20197;-87
2024/01/15 05:31:57;;;;;;;34.33;15.87;;;;;;;0.43;59.11;98543.69;5135128;27;20167;-87
2024/01/15 05:34:22;;;;;;;39.40;17.57;;;;;;;0.40;59.28;98538.59;5134523;27;20624;-87
2024/01/15 05:36:48;;;;;;;47.23;22.20;;;;;;;0.17;59.91;98527.09;5116906;27;20233;-87
2024/01/15 05:39:13;;;;;;;38.47;18.30;;;;;;;0.07;60.38;98526.44;5135220;27;20595;-87
2024/01/15 05:41:39;;;;;;;34.30;13.63;;;;;;;0.06;60.69;98516.16;5134769;27;20257;-88
2024/01/15 05:44:04;;;;;;;26.87;11.00;;;;;;;0.06;61.07;98511.84;5116748;27;20210;-87
2024/01/15 05:46:30;;;;;;;23.47;11.07;;;;;;;0.16;60.81;98499.63;5134963;27;20549;-87
2024/01/15 05:48:55;;;;;;;27.63;10.53;;;;;;;0.19;61.00;98505.56;5134697;27;20189;-87
2024/01/15 05:51:21;;;;;;;22.17;8.43;;;;;;;0.22;61.44;98504.63;5116618;27;20217;-88
2024/01/15 05:53:46;;;;;;;20.80;9.17;;;;;;;0.17;62.04;98491.88;5134998;27;20686;-87
2024/01/15 05:56:12;;;;;;;23.47;9.03;;;;;;;0.26;61.90;98501.13;5135839;27;20178;-87
2024/01/15 05:58:37;;;;;;;18.70;8.77;;;;;;;0.20;62.32;98496.97;5134313;27;20189;-87
2024/01/15 06:01:03;;;;;;;21.43;7.57;;;;;;;0.24;61.84;98495.13;5116137;27;20627;-87
2024/01/15 06:03:28;;;;;;;17.13;7.83;;;;;;;0.26;62.52;98490.81;5116404;27;20171;-87
2024/01/15 06:05:54;;;;;;;29.23;10.57;;;;;;;0.34;62.79;98484.59;5134798;27;20197;-87
2024/01/15 06:08:20;;;;;;;16.90;8.13;;;;;;;0.39;62.55;98475.03;5116354;27;20337;-88
2024/01/15 06:10:46;;;;;;;15.37;8.27;;;;;;;0.47;62.41;98483.44;5105151;28;20631;-87
2024/01/15 06:13:11;;;;;;;27.50;9.53;;;;;;;0.53;62.03;98483.31;5096496;28;20422;-87
2024/01/15 06:15:37;;;;;;;24.43;8.60;;;;;;;0.58;62.38;98480.63;5095662;28;20187;-87
2024/01/15 06:18:03;;;;;;;19.43;8.23;;;;;;;0.66;62.03;98485.59;5111752;27;20180;-87
2024/01/15 06:20:28;;;;;;;19.93;8.80;;;;;;;0.70;61.70;98482.06;5134419;27;20631;-88
2024/01/15 06:22:54;;;;;;;22.50;8.80;;;;;;;0.78;61.88;98485.31;5116125;27;20185;-87
2024/01/15 06:25:19;;;;;;;16.97;7.80;;;;;;;0.88;61.77;98502.25;5115987;27;20553;-88
2024/01/15 06:27:45;;;;;;;18.77;9.27;;;;;;;1.00;61.49;98496.78;5134415;27;20193;-87
2024/01/15 06:30:11;;;;;;;24.47;8.97;;;;;;;1.15;61.74;98491.28;5116191;28;20190;-88
2024/01/15 06:32:37;;;;;;;19.07;8.93;;;;;;;1.27;61.79;98480.63;5116256;28;20258;-87
2024/01/15 06:35:02;;;;;;;18.27;8.53;;;;;;;1.41;61.24;98469.94;5117023;27;20519;-87
2024/01/15 06:37:28;;;;;;;21.87;8.80;;;;;;;1.48;61.42;98474.03;5116097;28;20593;-88
2024/01/15 06:39:53;;;;;;;17.43;7.57;;;;;;;1.63;61.19;98466.72;5116361;28;20179;-88
2024/01/15 06:42:19;;;;;;;22.83;11.73;;;;;;;1.82;60.92;98467.91;5134033;28;20175;-87
2024/01/15 06:44:44;;;;;;;23.77;10.57;;;;;;;1.93;60.15;98461.59;5134124;28;20186;-88
2024/01/15 06:47:10;;;;;;;26.63;12.00;;;;;;;1.96;60.09;98469.25;5115626;28;20575;-88
2024/01/15 06:49:36;;;;;;;32.50;12.37;;;;;;;2.06;60.46;98468.09;5115800;28;20202;-88
2024/01/15 06:52:01;;;;;;;25.83;12.30;;;;;;;2.19;60.87;98472.88;5134196;28;20257;-87
2024/01/15 06:54:27;;;;;;;23.93;11.77;;;;;;;2.28;60.57;98475.16;5116080;28;20571;-88
2024/01/15 06:56:52;;;;;;;31.53;11.27;;;;;;;2.37;59.98;98481.78;5133795;28;20608;-88
2024/01/15 06:59:18;;;;;;;36.83;11.60;;;;;;;2.42;59.81;98482.50;5133885;28;20258;-88
2024/01/15 07:01:43;;;;;;;28.17;10.47;;;;;;;2.53;59.34;98495.97;5134089;28;20636;-88
2024/01/15 07:04:09;;;;;;;28.00;12.37;;;;;;;2.68;58.48;98492.91;5133569;28;20182;-87
2024/01/15 07:06:34;;;;;;;41.63;18.00;;;;;;;2.89;57.65;98489.63;5115671;28;20178;-88
2024/01/15 07:09:00;;;;;;;50.33;18.03;;;;;;;3.04;59.34;98483.09;5133286;28;20203;-88
2024/01/15 07:11:25;;;;;;;39.10;13.90;;;;;;;3.29;59.76;98489.16;5115498;28;20217;-88
2024/01/15 07:13:51;;;;;;;28.93;12.73;;;;;;;3.42;59.17;98477.50;5134019;28;20191;-88
2024/01/15 07:16:16;;;;;;;29.97;10.73;;;;;;;3.42;59.38;98474.91;5133705;28;20308;-88
2024/01/15 07:18:42;;;;;;;27.53;12.20;;;;;;;3.42;59.61;98466.28;5133506;28;20190;-88
2024/01/15 07:21:07;;;;;;;28.47;12.07;;;;;;;3.58;60.11;98460.50;5133913;28;20171;-87
2024/01/15 07:23:33;;;;;;;25.27;11.10;;;;;;;3.78;60.02;98457.19;5133387;28;20594;-88
2024/01/15 07:25:58;;;;;;;20.77;9.30;;;;;;;3.87;59.33;98462.06;5133527;27;20247;-88
2024/01/15 07:28:24;;;;;;;22.87;10.50;;;;;;;3.89;58.95;98464.59;5137026;27;20207;-88
2024/01/15 07:30:49;;;;;;;24.77;10.10;;;;;;;3.90;58.79;98461.09;5137129;27;20697;-87
2024/01/15 07:33:15;;;;;;;18.67;8.70;;;;;;;3.96;59.54;98460.84;5137000;27;20197;-88
2024/01/15 07:35:41;;;;;;;20.13;9.03;;;;;;;3.99;59.34;98453.81;5137438;27;20207;-88
2024/01/15 07:38:06;;;;;;;23.00;10.13;;;;;;;4.06;60.48;98450.09;5137970;27;20269;-87
2024/01/15 07:40:32;;;;;;;35.93;13.73;;;;;;;4.11;60.10;98439.56;5137097;27;20179;-87
2024/01/15 07:42:57;;;;;;;28.03;11.93;;;;;;;4.00;60.64;98437.38;5119063;27;20604;-87
2024/01/15 07:45:23;;;;;;;29.57;13.03;;;;;;;3.81;61.44;98441.53;5137524;27;20293;-88
2024/01/15 07:47:49;;;;;;;31.30;14.47;;;;;;;4.12;61.15;98447.28;5137425;27;20202;-88
2024/01/15 07:50:14;;;;;;;36.93;16.67;;;;;;;4.33;61.54;98445.59;5137043;27;20178;-88
2024/01/15 07:52:41;;;;;;;39.13;17.97;;;;;;;4.55;61.26;98438.69;5137038;27;20175;-88
2024/01/15 07:55:10;;;;;;;33.93;17.73;;;;;;;4.71;61.41;98444.97;5118757;27;20184;-88
2024/01/15 07:57:36;;;;;;;42.63;18.83;;;;;;;5.01;61.01;98442.84;5118084;27;20175;-88
2024/01/15 08:00:04;;;;;;;51.87;21.10;;;;;;;5.18;60.45;98432.63;5116829;28;20198;-88
2024/01/15 08:02:31;;;;;;;48.33;21.30;;;;;;;5.38;59.49;98426.56;5117353;28;20244;-88
2024/01/15 08:04:56;;;;;;;36.80;17.23;;;;;;;5.39;59.60;98442.09;5136518;27;20207;-88
2024/01/15 08:07:22;;;;;;;40.70;18.10;;;;;;;5.56;58.93;98434.41;5118619;27;20194;-89
2024/01/15 08:09:48;;;;;;;38.13;15.90;;;;;;;5.72;58.32;98436.34;5136908;27;20278;-88
2024/01/15 08:12:14;;;;;;;39.83;16.43;;;;;;;5.61;59.03;98431.59;5137118;27;20685;-88
2024/01/15 08:14:40;;;;;;;38.90;16.13;;;;;;;5.73;58.73;98435.44;5136806;27;20171;-88
2024/01/15 08:17:06;;;;;;;29.17;14.93;;;;;;;5.81;58.03;98433.34;5118639;27;20181;-88
2024/01/15 08:19:31;;;;;;;31.73;13.93;;;;;;;5.81;57.82;98435.94;5136698;27;20186;-88
2024/01/15 08:21:57;;;;;;;39.60;17.73;;;;;;;5.69;57.18;98449.47;5136683;27;20175;-88
2024/01/15 08:24:22;;;;;;;39.70;15.43;;;;;;;5.76;56.53;98449.16;5136572;27;20233;-88
2024/01/15 08:26:48;;;;;;;27.83;13.33;;;;;;;5.54;54.55;98456.19;5136473;27;20167;-88
2024/01/15 08:29:13;;;;;;;23.67;11.93;;;;;;;5.39;54.49;98456.84;5136480;27;20210;-88
2024/01/15 08:31:39;;;;;;;26.10;12.20;;;;;;;5.29;54.78;98458.97;5136528;27;20174;-88
2024/01/15 08:34:04;;;;;;;24.37;11.13;;;;;;;5.29;55.42;98458.16;5136492;27;20189;-88
2024/01/15 08:36:30;;;;;;;33.30;12.57;;;;;;;5.34;55.83;98449.25;5136256;27;20620;-88
2024/01/15 08:38:56;;;;;;;33.27;13.30;;;;;;;5.31;56.78;98446.78;5135846;27;20200;-88
2024/01/15 08:41:22;;;;;;;26.63;12.63;;;;;;;5.29;56.98;98448.56;5136326;27;20187;-88
2024/01/15 08:43:47;;;;;;;30.87;14.03;;;;;;;5.26;58.11;98446.13;5118017;27;20175;-88
2024/01/15 08:46:13;;;;;;;29.13;12.33;;;;;;;5.26;56.97;98422.75;5136839;27;20190;-88
2024/01/15 08:48:39;;;;;;;30.83;14.80;;;;;;;5.28;58.20;98427.88;5136705;27;20267;-88
2024/01/15 08:51:05;;;;;;;31.53;13.30;;;;;;;5.35;59.09;98435.34;5136134;27;20183;-88
2024/01/15 08:53:30;;;;;;;35.13;16.10;;;;;;;5.44;59.01;98426.31;5136071;27;20175;-88
2024/01/15 08:55:56;;;;;;;36.30;14.53;;;;;;;5.61;58.72;98420.38;5136294;27;20616;-88
2024/01/15 08:58:24;;;;;;;33.53;14.10;;;;;;;5.87;58.88;98420.91;5135861;27;20288;-88
2024/01/15 09:00:50;;;;;;;32.73;14.37;;;;;;;6.05;57.04;98421.88;5135945;27;20171;-89
2024/01/15 09:03:16;;;;;;;33.97;14.33;;;;;;;6.08;55.84;98432.97;5135756;27;20172;-88
2024/01/15 09:05:42;;;;;;;36.67;16.07;;;;;;;6.19;56.45;98427.25;5117886;27;20330;-88
2024/01/15 09:08:08;;;;;;;30.87;14.57;;;;;;;6.30;56.52;98427.63;5117916;27;20265;-88
2024/01/15 09:10:33;;;;;;;38.43;16.03;;;;;;;6.43;55.26;98428.72;5117454;27;20341;-89
2024/01/15 09:13:00;;;;;;;32.20;15.40;;;;;;;6.40;55.11;98421.06;5118450;27;20213;-88
2024/01/15 09:15:25;;;;;;;30.70;13.10;;;;;;;6.45;55.00;98418.22;5117501;27;20230;-88
2024/01/15 09:17:51;;;;;;;33.63;14.50;;;;;;;6.53;54.50;98405.69;5135598;27;20186;-89
2024/01/15 09:20:16;;;;;;;38.23;15.67;;;;;;;6.47;54.24;98406.81;5135833;27;20175;-88
2024/01/15 09:22:42;;;;;;;30.80;13.93;;;;;;;6.46;55.31;98399.09;5135494;27;20533;-89
2024/01/15 09:25:09;;;;;;;42.73;16.00;;;;;;;6.48;54.68;98399.88;5135630;27;20265;-89
2024/01/15 09:27:35;;;;;;;39.83;16.83;;;;;;;6.57;55.08;98405.50;5135427;27;20624;-88
2024/01/15 09:30:02;;;;;;;37.20;14.73;;;;;;;6.62;54.68;98413.94;5134871;27;20208;-88
2024/01/15 09:32:27;;;;;;;26.90;13.47;;;;;;;6.69;53.49;98404.91;5117245;27;20601;-88
2024/01/15 09:34:53;;;;;;;28.67;13.10;;;;;;;6.70;52.45;98392.72;5135270;27;20254;-89
2024/01/15 09:37:18;;;;;;;29.37;12.30;;;;;;;6.80;52.29;98383.53;5116972;27;20182;-88
2024/01/15 09:39:44;;;;;;;33.97;12.23;;;;;;;6.79;53.97;98377.47;5135131;27;20525;-89
2024/01/15 09:42:10;;;;;;;25.03;11.33;;;;;;;6.89;53.85;98374.44;5135109;27;20171;-88
2024/01/15 09:44:37;;;;;;;26.90;12.80;;;;;;;7.13;53.00;98368.81;5134798;27;20195;-88
2024/01/15 09:47:03;;;;;;;33.27;11.93;;;;;;;7.26;53.06;98358.59;5116824;27;20179;-89
2024/01/15 09:49:29;;;;;;;32.83;12.77;;;;;;;7.49;51.81;98354.81;5134041;27;20195;-89
2024/01/15 09:51:56;;;;;;;31.77;14.03;;;;;;;7.62;50.84;98355.84;5134808;27;20183;-89
2024/01/15 09:54:23;;;;;;;33.10;14.30;;;;;;;7.53;50.15;98357.16;5134879;27;20261;-89
2024/01/15 09:56:49;;;;;;;26.53;12.23;;;;;;;7.51;50.60;98352.97;5134708;27;20218;-89
2024/01/15 09:59:16;;;;;;;24.93;10.93;;;;;;;7.60;50.71;98358.53;5116678;27;20204;-89
2024/01/15 10:01:44;;;;;;;25.70;11.03;;;;;;;7.56;50.04;98345.72;5116346;27;20179;-89
2024/01/15 10:04:12;;;;;;;25.53;11.27;;;;;;;7.46;50.15;98337.56;5134628;27;20190;-88
2024/01/15 10:06:42;;;;;;;24.80;11.93;;;;;;;7.36;50.83;98349.41;5116629;27;20269;-89
2024/01/15 10:09:07;;;;;;;22.77;11.10;;;;;;;7.29;51.00;98342.81;5116724;27;20205;-89
2024/01/15 10:11:33;;;;;;;29.73;12.77;;;;;;;7.25;50.80;98336.06;5114051;28;20176;-89
2024/01/15 10:13:59;;;;;;;27.63;12.10;;;;;;;7.30;51.79;98339.28;5114039;28;20321;-89
2024/01/15 10:16:26;;;;;;;33.87;14.57;;;;;;;7.46;51.34;98329.75;5130127;27;20178;-89
2024/01/15 10:18:51;;;;;;;27.13;12.50;;;;;;;7.54;51.20;98339.75;5134445;27;20227;-89
2024/01/15 10:21:17;;;;;;;24.97;11.47;;;;;;;7.42;50.36;98341.25;5116285;27;20186;-89
2024/01/15 10:23:43;;;;;;;22.50;11.23;;;;;;;7.37;50.59;98315.41;5134392;27;20611;-90
2024/01/15 10:26:08;;;;;;;29.23;14.37;;;;;;;7.51;50.80;98309.47;5134694;27;20171;-89
2024/01/15 10:28:40;;;;;;;29.00;12.50;;;;;;;7.62;50.82;98304.53;5134016;27;20206;-89
2024/01/15 10:31:06;;;;;;;22.37;11.60;;;;;;;7.65;51.14;98309.56;5134496;27;20232;-89
2024/01/15 10:33:32;;;;;;;28.63;12.53;;;;;;;7.70;50.34;98312.78;5134527;27;20587;-89
2024/01/15 10:36:00;;;;;;;25.67;12.33;;;;;;;7.71;50.15;98300.56;5134551;27;20167;-89
2024/01/15 10:38:26;;;;;;;25.70;10.77;;;;;;;7.68;50.23;98300.75;5134308;27;20171;-89
2024/01/15 10:40:53;;;;;;;25.33;12.20;;;;;;;7.76;50.15;98293.34;5134499;27;20179;-89
2024/01/15 10:43:19;;;;;;;29.10;12.37;;;;;;;7.84;49.75;98289.38;5133968;28;20239;-89
2024/01/15 10:45:49;;;;;;;27.60;11.10;;;;;;;7.80;49.39;98285.28;5134149;27;20191;-90
2024/01/15 10:48:17;;;;;;;27.33;10.77;;;;;;;7.81;49.15;98280.88;5134357;28;20688;-89
2024/01/15 10:50:43;;;;;;;23.13;11.23;;;;;;;7.83;49.59;98279.06;5115897;28;20691;-89
2024/01/15 10:53:11;;;;;;;27.07;10.43;;;;;;;7.90;48.98;98269.94;5134105;28;20177;-89
2024/01/15 10:55:37;;;;;;;17.53;8.43;;;;;;;7.97;49.69;98248.66;5134383;28;20644;-89
2024/01/15 10:58:03;;;;;;;21.77;10.10;;;;;;;8.04;48.87;98231.72;5134382;28;20227;-89
2024/01/15 11:00:30;;;;;;;22.43;10.33;;;;;;;8.13;48.29;98227.75;5134761;27;20187;-89
2024/01/15 11:02:56;;;;;;;26.07;11.67;;;;;;;8.14;48.49;98232.03;5138552;27;20199;-89
2024/01/15 11:05:22;;;;;;;23.13;9.90;;;;;;;7.99;48.56;98232.94;5120065;27;20179;-89
2024/01/15 11:07:49;;;;;;;26.93;10.63;;;;;;;7.92;49.53;98228.94;5137858;27;20216;-88
2024/01/15 11:10:48;;;;;;;20.73;9.77;;;;;;;8.27;49.34;98209.56;5137924;27;20218;-89
2024/01/15 11:13:40;;;;;;;24.73;10.53;;;;;;;8.20;48.33;98207.38;5119905;27;20597;-89
2024/01/15 11:16:11;;;;;;;20.80;9.57;;;;;;;8.37;48.70;98210.69;5138285;27;20169;-89
2024/01/15 11:18:41;;;;;;;22.73;9.80;;;;;;;8.56;48.13;98215.69;5137813;27;20235;-89
2024/01/15 11:21:16;;;;;;;22.37;10.53;;;;;;;8.59;47.51;98223.34;5119802;27;20184;-89
2024/01/15 11:23:46;;;;;;;22.63;10.57;;;;;;;8.61;48.11;98224.09;5119644;27;20426;-89
2024/01/15 11:26:38;;;;;;;23.20;9.83;;;;;;;8.76;47.84;98220.56;5138357;27;20608;-90